createdAt,value
2016-07-28T00:00:31.564Z,0
2016-07-28T00:01:46.511Z,0
2016-07-28T00:02:31.614Z,0
2016-07-28T00:03:31.642Z,0
2016-07-28T00:04:31.674Z,0
2016-07-28T00:06:01.545Z,0
2016-07-28T00:06:31.737Z,0
2016-07-28T00:08:31.785Z,0
2016-07-28T00:09:47.611Z,0
2016-07-28T00:10:31.831Z,0
2016-07-28T00:11:32.684Z,0
2016-07-28T00:12:31.903Z,0
2016-07-28T00:13:46.841Z,0
2016-07-28T00:14:46.861Z,0
2016-07-28T00:16:31.995Z,0
2016-07-28T00:17:32.026Z,0
2016-07-28T00:18:32.043Z,0
2016-07-28T00:19:32.081Z,0
2016-07-28T00:21:47.053Z,0
2016-07-28T00:22:47.084Z,0
2016-07-28T00:23:32.183Z,0
2016-07-28T00:24:32.211Z,0
2016-07-28T00:25:32.245Z,0
2016-07-28T00:26:48.111Z,0
2016-07-28T00:27:32.294Z,0
2016-07-28T00:28:32.318Z,0
2016-07-28T00:29:32.348Z,0
2016-07-28T00:30:32.375Z,0
2016-07-28T00:31:32.407Z,0
2016-07-28T00:32:32.436Z,0
2016-07-28T00:33:47.383Z,0
2016-07-28T00:34:32.476Z,0
2016-07-28T00:35:32.504Z,0
2016-07-28T00:36:47.459Z,0
2016-07-28T00:37:32.563Z,0
2016-07-28T00:38:32.590Z,0
2016-07-28T00:39:32.615Z,0
2016-07-28T00:40:32.648Z,0
2016-07-28T00:41:34.332Z,0
2016-07-28T00:42:32.698Z,0
2016-07-28T00:43:33.432Z,0
2016-07-28T00:44:32.746Z,0
2016-07-28T00:45:32.788Z,0
2016-07-28T00:46:32.799Z,0
2016-07-28T00:47:32.826Z,0
2016-07-28T00:48:32.856Z,0
2016-07-28T00:49:32.880Z,0
2016-07-28T00:50:32.910Z,0
2016-07-28T00:51:32.954Z,0
2016-07-28T00:52:32.962Z,0
2016-07-28T00:53:33.047Z,0
2016-07-28T00:54:47.950Z,0
2016-07-28T00:55:33.047Z,0
2016-07-28T00:56:35.557Z,0
2016-07-28T00:58:33.127Z,0
2016-07-28T00:59:33.159Z,0
2016-07-28T01:00:33.187Z,0
2016-07-28T01:01:33.213Z,0
2016-07-28T01:02:33.253Z,0
2016-07-28T01:03:33.268Z,0
2016-07-28T01:04:33.290Z,0
2016-07-28T01:05:33.315Z,0
2016-07-28T01:06:33.355Z,0
2016-07-28T01:07:33.373Z,0
2016-07-28T01:08:48.319Z,0
2016-07-28T01:09:33.433Z,0
2016-07-28T01:10:33.455Z,0
2016-07-28T01:11:34.329Z,0
2016-07-28T01:12:34.214Z,0
2016-07-28T01:13:33.532Z,0
2016-07-28T01:14:33.577Z,0
2016-07-28T01:15:33.594Z,0
2016-07-28T01:16:33.614Z,0
2016-07-28T01:17:33.637Z,0
2016-07-28T01:18:33.674Z,0
2016-07-28T01:19:33.706Z,0
2016-07-28T01:20:33.732Z,0
2016-07-28T01:21:48.683Z,0
2016-07-28T01:22:48.705Z,0
2016-07-28T01:23:33.796Z,0
2016-07-28T01:25:04.375Z,0
2016-07-28T01:25:48.783Z,0
2016-07-28T01:26:34.780Z,0
2016-07-28T01:27:33.908Z,0
2016-07-28T01:28:33.946Z,0
2016-07-28T01:29:33.972Z,0
2016-07-28T01:30:49.019Z,0
2016-07-28T01:31:34.019Z,0
2016-07-28T01:32:48.972Z,0
2016-07-28T01:33:49.015Z,0
2016-07-28T01:34:34.103Z,0
2016-07-28T01:35:34.130Z,0
2016-07-28T01:36:34.152Z,0
2016-07-28T01:37:34.187Z,0
2016-07-28T01:38:34.205Z,0
2016-07-28T01:39:34.246Z,0
2016-07-28T01:40:49.183Z,0
2016-07-28T01:41:50.043Z,0
2016-07-28T01:42:34.309Z,0
2016-07-28T01:43:34.335Z,0
2016-07-28T01:45:34.412Z,0
2016-07-28T01:46:34.432Z,0
2016-07-28T01:47:34.449Z,0
2016-07-28T01:48:34.482Z,0
2016-07-28T01:49:34.505Z,0
2016-07-28T01:50:34.539Z,0
2016-07-28T01:53:04.439Z,0
2016-07-28T01:53:49.544Z,0
2016-07-28T01:55:49.598Z,0
2016-07-28T01:56:49.623Z,0
2016-07-28T01:57:49.644Z,0
2016-07-28T01:58:34.740Z,0
2016-07-28T01:59:34.795Z,0
2016-07-28T02:00:35.504Z,0
2016-07-28T02:01:49.762Z,0
2016-07-28T02:02:34.859Z,0
2016-07-28T02:03:34.885Z,0
2016-07-28T02:04:35.598Z,0
2016-07-28T02:05:34.942Z,0
2016-07-28T02:06:34.967Z,0
2016-07-28T02:07:34.987Z,0
2016-07-28T02:08:49.946Z,0
2016-07-28T02:09:35.045Z,0
2016-07-28T02:10:35.069Z,0
2016-07-28T02:11:50.031Z,0
2016-07-28T02:12:35.132Z,0
2016-07-28T02:13:35.151Z,0
2016-07-28T02:14:35.175Z,0
2016-07-28T02:15:35.213Z,0
2016-07-28T02:16:35.239Z,0
2016-07-28T02:17:35.266Z,0
2016-07-28T02:18:35.283Z,0
2016-07-28T02:19:35.467Z,0
2016-07-28T02:20:35.330Z,0
2016-07-28T02:21:35.375Z,0
2016-07-28T02:22:35.394Z,0
2016-07-28T02:23:50.349Z,0
2016-07-28T02:24:50.365Z,0
2016-07-28T02:27:50.457Z,0
2016-07-28T02:28:35.554Z,0
2016-07-28T02:30:35.606Z,0
2016-07-28T02:31:35.837Z,0
2016-07-28T02:32:35.660Z,0
2016-07-28T02:33:35.688Z,0
2016-07-28T02:34:35.712Z,0
2016-07-28T02:35:35.750Z,0
2016-07-28T02:36:35.780Z,0
2016-07-28T02:37:35.792Z,0
2016-07-28T02:38:35.820Z,0
2016-07-28T02:39:35.857Z,0
2016-07-28T02:40:50.851Z,0
2016-07-28T02:42:35.940Z,0
2016-07-28T02:43:50.881Z,0
2016-07-28T02:45:36.017Z,0
2016-07-28T02:46:36.040Z,0
2016-07-28T02:47:36.068Z,0
2016-07-28T02:48:36.098Z,0
2016-07-28T02:49:36.126Z,0
2016-07-28T02:50:36.143Z,0
2016-07-28T02:51:36.178Z,0
2016-07-28T02:52:36.209Z,0
2016-07-28T02:53:36.231Z,0
2016-07-28T02:54:36.245Z,0
2016-07-28T02:55:36.280Z,0
2016-07-28T02:56:36.317Z,0
2016-07-28T02:57:36.340Z,0
2016-07-28T02:59:51.325Z,0
2016-07-28T03:00:36.414Z,0
2016-07-28T03:01:36.449Z,0
2016-07-28T03:02:36.478Z,0
2016-07-28T03:03:36.491Z,0
2016-07-28T03:04:52.144Z,0
2016-07-28T03:05:36.558Z,0
2016-07-28T03:06:36.570Z,0
2016-07-28T03:07:36.600Z,0
2016-07-28T03:08:36.633Z,0
2016-07-28T03:09:36.660Z,0
2016-07-28T03:10:36.681Z,0
2016-07-28T03:13:36.768Z,0
2016-07-28T03:14:36.785Z,0
2016-07-28T03:15:51.738Z,0
2016-07-28T03:16:36.843Z,0
2016-07-28T03:17:36.870Z,0
2016-07-28T03:18:36.893Z,0
2016-07-28T03:19:36.921Z,0
2016-07-28T03:20:36.946Z,5
2016-07-28T03:21:36.968Z,5
2016-07-28T03:22:51.926Z,5
2016-07-28T03:23:37.030Z,5
2016-07-28T03:24:37.053Z,5
2016-07-28T03:25:37.075Z,10
2016-07-28T03:26:37.120Z,10
2016-07-28T03:27:37.139Z,10
2016-07-28T03:28:52.097Z,10
2016-07-28T03:29:37.191Z,10
2016-07-28T03:30:37.220Z,10
2016-07-28T03:31:52.211Z,10
2016-07-28T03:32:37.311Z,10
2016-07-28T03:33:37.295Z,10
2016-07-28T03:34:37.333Z,15
2016-07-28T03:35:37.344Z,15
2016-07-28T03:36:37.374Z,15
2016-07-28T03:37:37.399Z,15
2016-07-28T03:38:37.430Z,15
2016-07-28T03:39:37.455Z,15
2016-07-28T03:40:37.487Z,15
2016-07-28T03:41:37.549Z,20
2016-07-28T03:42:37.539Z,20
2016-07-28T03:43:37.567Z,20
2016-07-28T03:44:37.586Z,20
2016-07-28T03:45:37.615Z,20
2016-07-28T03:47:07.491Z,25
2016-07-28T03:47:37.665Z,25
2016-07-28T03:48:37.696Z,25
2016-07-28T03:49:37.720Z,30
2016-07-28T03:50:52.676Z,30
2016-07-28T03:51:37.768Z,35
2016-07-28T03:52:52.729Z,35
2016-07-28T03:53:37.824Z,40
2016-07-28T03:54:37.860Z,40
2016-07-28T03:55:37.879Z,40
2016-07-28T03:56:52.830Z,40
2016-07-28T03:57:38.631Z,45
2016-07-28T03:58:37.968Z,40
2016-07-28T03:59:37.988Z,40
2016-07-28T04:00:38.019Z,40
2016-07-28T04:01:38.037Z,40
2016-07-28T04:02:38.069Z,40
2016-07-28T04:03:38.112Z,45
2016-07-28T04:04:38.125Z,45
2016-07-28T04:05:38.145Z,55
2016-07-28T04:06:53.102Z,60
2016-07-28T04:07:38.200Z,60
2016-07-28T04:08:38.239Z,60
2016-07-28T04:09:38.264Z,60
2016-07-28T04:10:38.982Z,65
2016-07-28T04:11:38.314Z,60
2016-07-28T04:12:53.268Z,70
2016-07-28T04:13:38.360Z,65
2016-07-28T04:14:38.382Z,70
2016-07-28T04:15:38.424Z,75
2016-07-28T04:16:38.439Z,75
2016-07-28T04:17:38.472Z,80
2016-07-28T04:18:53.433Z,80
2016-07-28T04:19:38.524Z,80
2016-07-28T04:20:38.560Z,85
2016-07-28T04:21:38.570Z,80
2016-07-28T04:22:38.613Z,75
2016-07-28T04:23:38.630Z,80
2016-07-28T04:24:38.662Z,85
2016-07-28T04:25:39.374Z,90
2016-07-28T04:26:38.713Z,95
2016-07-28T04:27:38.743Z,105
2016-07-28T04:29:38.789Z,130
2016-07-28T04:30:38.829Z,120
2016-07-28T04:31:38.844Z,120
2016-07-28T04:32:53.794Z,125
2016-07-28T04:33:53.919Z,125
2016-07-28T04:34:53.854Z,105
2016-07-28T04:35:38.957Z,115
2016-07-28T04:36:38.986Z,115
2016-07-28T04:37:39.009Z,110
2016-07-28T04:38:39.054Z,110
2016-07-28T04:39:53.987Z,100
2016-07-28T04:40:39.092Z,105
2016-07-28T04:41:54.750Z,120
2016-07-28T04:42:39.152Z,135
2016-07-28T04:43:54.097Z,145
2016-07-28T04:44:39.198Z,155
2016-07-28T04:45:39.280Z,160
2016-07-28T04:46:39.247Z,160
2016-07-28T04:47:54.199Z,165
2016-07-28T04:48:39.311Z,175
2016-07-28T04:49:39.325Z,185
2016-07-28T04:51:09.214Z,200
2016-07-28T04:52:54.347Z,195
2016-07-28T04:53:54.367Z,285
2016-07-28T04:54:39.471Z,330
2016-07-28T04:55:39.495Z,380
2016-07-28T04:56:39.522Z,420
2016-07-28T04:57:39.555Z,415
2016-07-28T04:58:39.584Z,360
2016-07-28T04:59:54.544Z,440
2016-07-28T05:00:39.639Z,405
2016-07-28T05:01:39.663Z,440
2016-07-28T05:02:39.691Z,510
2016-07-28T05:03:39.733Z,525
2016-07-28T05:04:54.678Z,525
2016-07-28T05:05:39.774Z,530
2016-07-28T05:06:54.742Z,510
2016-07-28T05:08:39.876Z,500
2016-07-28T05:09:39.905Z,460
2016-07-28T05:10:40.621Z,475
2016-07-28T05:11:39.966Z,515
2016-07-28T05:12:39.993Z,500
2016-07-28T05:13:40.023Z,500
2016-07-28T05:14:40.060Z,450
2016-07-28T05:15:40.083Z,460
2016-07-28T05:16:40.108Z,450
2016-07-28T05:17:55.073Z,475
2016-07-28T05:18:55.113Z,450
2016-07-28T05:19:55.127Z,485
2016-07-28T05:20:40.255Z,520
2016-07-28T05:21:55.195Z,625
2016-07-28T05:22:40.298Z,620
2016-07-28T05:23:40.332Z,410
2016-07-28T05:24:55.291Z,450
2016-07-28T05:25:55.318Z,565
2016-07-28T05:26:40.416Z,575
2016-07-28T05:27:41.284Z,470
2016-07-28T05:28:40.483Z,605
2016-07-28T05:29:40.519Z,610
2016-07-28T05:30:55.481Z,545
2016-07-28T05:31:40.575Z,600
2016-07-28T05:32:40.625Z,600
2016-07-28T05:33:55.564Z,625
2016-07-28T05:34:40.686Z,725
2016-07-28T05:35:40.814Z,700
2016-07-28T05:36:40.735Z,730
2016-07-28T05:37:40.777Z,570
2016-07-28T05:38:40.820Z,600
2016-07-28T05:39:40.845Z,620
2016-07-28T05:40:55.796Z,665
2016-07-28T05:41:41.596Z,765
2016-07-28T05:42:56.689Z,840
2016-07-28T05:43:40.964Z,810
2016-07-28T05:44:41.008Z,865
2016-07-28T05:45:41.087Z,885
2016-07-28T05:46:41.070Z,965
2016-07-28T05:47:41.356Z,950
2016-07-28T05:48:41.154Z,930
2016-07-28T05:49:41.401Z,955
2016-07-28T05:51:41.232Z,950
2016-07-28T05:52:41.268Z,870
2016-07-28T05:54:56.256Z,955
2016-07-28T05:55:41.364Z,910
2016-07-28T05:56:56.320Z,930
2016-07-28T05:57:43.092Z,945
2016-07-28T05:58:41.483Z,880
2016-07-28T05:59:56.432Z,940
2016-07-28T06:00:41.535Z,945
2016-07-28T06:01:41.563Z,975
2016-07-28T06:02:41.601Z,905
2016-07-28T06:03:41.630Z,805
2016-07-28T06:04:41.663Z,1020
2016-07-28T06:05:41.698Z,1030
2016-07-28T06:06:41.737Z,1095
2016-07-28T06:07:41.761Z,1105
2016-07-28T06:08:41.802Z,1075
2016-07-28T06:10:11.693Z,1075
2016-07-28T06:11:41.911Z,1080
2016-07-28T06:12:42.772Z,1070
2016-07-28T06:13:41.993Z,1100
2016-07-28T06:14:42.003Z,1100
2016-07-28T06:15:42.038Z,1055
2016-07-28T06:16:42.770Z,1080
2016-07-28T06:17:42.119Z,1065
2016-07-28T06:18:42.149Z,1100
2016-07-28T06:19:42.187Z,1130
2016-07-28T06:20:42.222Z,1110
2016-07-28T06:21:42.251Z,1090
2016-07-28T06:22:42.274Z,1080
2016-07-28T06:23:42.331Z,1090
2016-07-28T06:24:42.361Z,1125
2016-07-28T06:25:57.307Z,1095
2016-07-28T06:26:57.350Z,1080
2016-07-28T06:27:44.116Z,1095
2016-07-28T06:28:42.492Z,1105
2016-07-28T06:30:42.561Z,1080
2016-07-28T06:32:42.638Z,1105
2016-07-28T06:33:42.665Z,1095
2016-07-28T06:34:42.701Z,1125
2016-07-28T06:35:42.812Z,1095
2016-07-28T06:36:42.824Z,1085
2016-07-28T06:37:57.745Z,1130
2016-07-28T06:38:57.784Z,1140
2016-07-28T06:39:42.887Z,1130
2016-07-28T06:40:42.912Z,1105
2016-07-28T06:41:57.882Z,1070
2016-07-28T06:42:44.693Z,1115
2016-07-28T06:43:43.041Z,1115
2016-07-28T06:44:43.064Z,1115
2016-07-28T06:45:43.091Z,1075
2016-07-28T06:46:43.142Z,1020
2016-07-28T06:47:43.170Z,1035
2016-07-28T06:48:43.260Z,1030
2016-07-28T06:50:43.286Z,960
2016-07-28T06:51:43.321Z,985
2016-07-28T06:52:43.348Z,980
2016-07-28T06:53:58.315Z,950
2016-07-28T06:54:43.426Z,930
2016-07-28T06:55:43.472Z,910
2016-07-28T06:56:58.419Z,895
2016-07-28T06:57:45.195Z,830
2016-07-28T06:58:43.571Z,765
2016-07-28T06:59:43.618Z,825
2016-07-28T07:00:43.645Z,820
2016-07-28T07:01:43.678Z,775
2016-07-28T07:02:44.434Z,750
2016-07-28T07:03:44.458Z,705
2016-07-28T07:04:43.779Z,675
2016-07-28T07:05:58.758Z,680
2016-07-28T07:06:58.796Z,670
2016-07-28T07:07:44.591Z,660
2016-07-28T07:08:43.933Z,645
2016-07-28T07:09:43.964Z,625
2016-07-28T07:10:58.937Z,645
2016-07-28T07:11:44.054Z,675
2016-07-28T07:13:44.109Z,720
2016-07-28T07:14:44.154Z,690
2016-07-28T07:15:44.196Z,700
2016-07-28T07:17:59.190Z,1040
2016-07-28T07:18:44.299Z,1370
2016-07-28T07:19:44.332Z,1505
2016-07-28T07:20:44.372Z,500
2016-07-28T07:21:44.414Z,390
2016-07-28T07:22:44.457Z,1175
2016-07-28T07:23:44.489Z,1000
2016-07-28T07:24:44.518Z,370
2016-07-28T07:25:59.483Z,1155
2016-07-28T07:26:44.588Z,1115
2016-07-28T07:27:44.623Z,1105
2016-07-28T07:28:59.585Z,340
2016-07-28T07:29:44.709Z,345
2016-07-28T07:30:59.665Z,1090
2016-07-28T07:31:59.696Z,395
2016-07-28T07:32:44.809Z,1170
2016-07-28T07:33:44.834Z,1130
2016-07-28T07:34:59.804Z,1110
2016-07-28T07:36:14.772Z,1140
2016-07-28T07:36:44.943Z,1100
2016-07-28T07:37:44.993Z,1035
2016-07-28T07:38:45.022Z,1045
2016-07-28T07:39:45.050Z,1105
2016-07-28T07:40:45.099Z,1040
2016-07-28T07:41:45.177Z,1070
2016-07-28T07:42:45.219Z,1055
2016-07-28T07:43:45.206Z,990
2016-07-28T07:45:00.169Z,965
2016-07-28T07:45:45.277Z,465
2016-07-28T07:46:45.311Z,1015
2016-07-28T07:47:45.350Z,1000
2016-07-28T07:48:45.430Z,980
2016-07-28T07:49:45.427Z,1005
2016-07-28T07:50:45.451Z,975
2016-07-28T07:52:00.413Z,920
2016-07-28T07:52:45.519Z,1045
2016-07-28T07:53:45.558Z,1040
2016-07-28T07:54:45.592Z,1005
2016-07-28T07:56:00.553Z,935
2016-07-28T07:57:00.596Z,960
2016-07-28T07:58:45.748Z,955
2016-07-28T07:59:45.776Z,845
2016-07-28T08:01:00.749Z,880
2016-07-28T08:02:00.784Z,750
2016-07-28T08:02:45.878Z,880
2016-07-28T08:03:45.929Z,690
2016-07-28T08:04:45.960Z,855
2016-07-28T08:05:45.986Z,875
2016-07-28T08:09:01.030Z,590
2016-07-28T08:09:46.141Z,830
2016-07-28T08:10:46.177Z,800
2016-07-28T08:11:46.204Z,785
2016-07-28T08:12:46.251Z,835
2016-07-28T08:13:46.281Z,800
2016-07-28T08:14:46.330Z,325
2016-07-28T08:15:46.362Z,265
2016-07-28T08:17:01.324Z,285
2016-07-28T08:18:46.469Z,350
2016-07-28T08:19:46.507Z,765
2016-07-28T08:20:46.537Z,715
2016-07-28T08:21:46.572Z,655
2016-07-28T08:22:46.611Z,365
2016-07-28T08:23:46.645Z,335
2016-07-28T08:24:46.675Z,310
2016-07-28T08:26:01.647Z,280
2016-07-28T08:26:46.739Z,290
2016-07-28T08:27:46.783Z,350
2016-07-28T08:28:46.832Z,695
2016-07-28T08:29:46.857Z,655
2016-07-28T08:31:01.818Z,565
2016-07-28T08:32:01.855Z,675
2016-07-28T08:32:46.961Z,405
2016-07-28T08:33:47.009Z,335
2016-07-28T08:35:02.069Z,310
2016-07-28T08:35:47.064Z,305
2016-07-28T08:36:47.795Z,640
2016-07-28T08:37:47.134Z,640
2016-07-28T08:38:47.172Z,650
2016-07-28T08:40:02.132Z,615
2016-07-28T08:40:47.240Z,610
2016-07-28T08:41:47.273Z,375
2016-07-28T08:42:47.360Z,550
2016-07-28T08:44:02.262Z,585
2016-07-28T08:45:02.302Z,575
2016-07-28T08:45:47.410Z,600
2016-07-28T08:47:02.380Z,425
2016-07-28T08:47:47.500Z,515
2016-07-28T08:49:02.439Z,315
2016-07-28T08:49:47.537Z,295
2016-07-28T08:50:47.573Z,265
2016-07-28T08:51:47.615Z,235
2016-07-28T08:52:47.644Z,210
2016-07-28T08:53:47.679Z,205
2016-07-28T08:54:47.719Z,205
2016-07-28T08:55:47.763Z,230
2016-07-28T08:57:02.727Z,235
2016-07-28T08:57:47.844Z,270
2016-07-28T08:59:02.787Z,515
2016-07-28T09:00:02.829Z,525
2016-07-28T09:00:47.982Z,535
2016-07-28T09:02:02.941Z,565
2016-07-28T09:03:02.926Z,565
2016-07-28T09:04:02.963Z,570
2016-07-28T09:04:48.069Z,570
2016-07-28T09:06:03.026Z,550
2016-07-28T09:06:48.126Z,540
2016-07-28T09:07:48.168Z,530
2016-07-28T09:08:48.196Z,530
2016-07-28T09:09:48.933Z,535
2016-07-28T09:11:03.198Z,535
2016-07-28T09:11:48.294Z,530
2016-07-28T09:13:48.373Z,530
2016-07-28T09:15:03.355Z,540
2016-07-28T09:16:03.367Z,550
2016-07-28T09:16:48.492Z,550
2016-07-28T09:17:48.514Z,510
2016-07-28T09:18:48.536Z,510
2016-07-28T09:20:03.509Z,495
2016-07-28T09:20:48.617Z,280
2016-07-28T09:22:04.275Z,250
2016-07-28T09:22:48.685Z,260
2016-07-28T09:23:48.717Z,360
2016-07-28T09:24:49.464Z,375
2016-07-28T09:25:48.784Z,445
2016-07-28T09:26:49.535Z,395
2016-07-28T09:27:48.867Z,420
2016-07-28T09:29:48.927Z,435
2016-07-28T09:31:49.679Z,405
2016-07-28T09:32:49.021Z,410
2016-07-28T09:34:03.983Z,405
2016-07-28T09:34:49.095Z,270
2016-07-28T09:36:04.058Z,260
2016-07-28T09:36:49.165Z,255
2016-07-28T09:37:49.192Z,260
2016-07-28T09:38:49.950Z,405
2016-07-28T09:39:49.266Z,450
2016-07-28T09:40:49.311Z,305
2016-07-28T09:41:49.340Z,290
2016-07-28T09:42:49.379Z,280
2016-07-28T09:43:49.387Z,265
2016-07-28T09:44:49.433Z,260
2016-07-28T09:45:49.472Z,255
2016-07-28T09:48:04.508Z,350
2016-07-28T09:48:49.578Z,290
2016-07-28T09:50:04.521Z,265
2016-07-28T09:50:49.629Z,250
2016-07-28T09:52:04.593Z,205
2016-07-28T09:53:49.744Z,165
2016-07-28T09:54:49.762Z,155
2016-07-28T09:55:49.816Z,135
2016-07-28T09:56:49.825Z,120
2016-07-28T09:57:49.885Z,110
2016-07-28T09:58:49.907Z,100
2016-07-28T09:59:49.930Z,100
2016-07-28T10:00:49.971Z,95
2016-07-28T10:01:50.006Z,95
2016-07-28T10:02:50.087Z,95
2016-07-28T10:03:50.067Z,100
2016-07-28T10:04:50.142Z,100
2016-07-28T10:05:50.129Z,105
2016-07-28T10:07:05.094Z,115
2016-07-28T10:07:50.201Z,165
2016-07-28T10:08:50.240Z,150
2016-07-28T10:11:05.226Z,200
2016-07-28T10:11:50.328Z,315
2016-07-28T10:12:50.378Z,235
2016-07-28T10:14:05.325Z,240
2016-07-28T10:15:05.350Z,325
2016-07-28T10:15:50.462Z,290
2016-07-28T10:16:50.519Z,230
2016-07-28T10:17:50.526Z,225
2016-07-28T10:18:50.548Z,255
2016-07-28T10:19:50.593Z,385
2016-07-28T10:20:51.319Z,370
2016-07-28T10:22:05.581Z,300
2016-07-28T10:23:05.611Z,450
2016-07-28T10:23:51.426Z,440
2016-07-28T10:24:50.752Z,320
2016-07-28T10:25:50.792Z,270
2016-07-28T10:26:50.828Z,255
2016-07-28T10:27:50.851Z,235
2016-07-28T10:28:50.884Z,210
2016-07-28T10:29:50.931Z,195
2016-07-28T10:30:50.953Z,170
2016-07-28T10:31:50.997Z,155
2016-07-28T10:33:05.948Z,130
2016-07-28T10:34:05.978Z,115
2016-07-28T10:34:51.099Z,110
2016-07-28T10:36:06.047Z,100
2016-07-28T10:36:51.144Z,95
2016-07-28T10:37:51.175Z,90
2016-07-28T10:39:06.142Z,90
2016-07-28T10:39:51.251Z,90
2016-07-28T10:40:51.281Z,90
2016-07-28T10:41:51.318Z,95
2016-07-28T10:43:06.271Z,100
2016-07-28T10:43:51.369Z,105
2016-07-28T10:45:51.433Z,125
2016-07-28T10:46:51.485Z,135
2016-07-28T10:47:51.504Z,150
2016-07-28T10:48:51.537Z,160
2016-07-28T10:50:06.494Z,180
2016-07-28T10:50:51.593Z,190
2016-07-28T10:52:06.567Z,200
2016-07-28T10:52:51.672Z,200
2016-07-28T10:53:51.688Z,210
2016-07-28T10:55:21.587Z,220
2016-07-28T10:56:06.726Z,220
2016-07-28T10:57:06.713Z,225
2016-07-28T10:57:51.825Z,225
2016-07-28T10:59:06.791Z,220
2016-07-28T10:59:51.886Z,215
2016-07-28T11:00:51.917Z,210
2016-07-28T11:01:52.653Z,195
2016-07-28T11:02:52.037Z,185
2016-07-28T11:03:52.022Z,175
2016-07-28T11:04:52.046Z,170
2016-07-28T11:06:07.003Z,170
2016-07-28T11:06:52.118Z,170
2016-07-28T11:07:52.145Z,175
2016-07-28T11:08:52.173Z,180
2016-07-28T11:09:52.215Z,200
2016-07-28T11:11:52.273Z,285
2016-07-28T11:12:52.299Z,215
2016-07-28T11:13:52.335Z,230
2016-07-28T11:15:07.292Z,275
2016-07-28T11:15:52.403Z,225
2016-07-28T11:17:52.460Z,220
2016-07-28T11:18:52.504Z,215
2016-07-28T11:19:52.521Z,210
2016-07-28T11:21:07.481Z,210
2016-07-28T11:21:52.588Z,210
2016-07-28T11:23:07.539Z,215
2016-07-28T11:23:52.657Z,215
2016-07-28T11:25:52.728Z,205
2016-07-28T11:27:07.675Z,200
2016-07-28T11:27:52.774Z,185
2016-07-28T11:28:52.806Z,170
2016-07-28T11:29:52.837Z,160
2016-07-28T11:30:53.580Z,150
2016-07-28T11:31:52.910Z,140
2016-07-28T11:32:52.943Z,135
2016-07-28T11:33:52.981Z,135
2016-07-28T11:35:07.927Z,135
2016-07-28T11:35:53.031Z,140
2016-07-28T11:36:53.059Z,150
2016-07-28T11:38:08.030Z,155
2016-07-28T11:38:53.127Z,160
2016-07-28T11:39:53.163Z,165
2016-07-28T11:40:53.192Z,170
2016-07-28T11:42:08.160Z,165
2016-07-28T11:42:53.262Z,165
2016-07-28T11:43:53.461Z,155
2016-07-28T11:44:53.319Z,155
2016-07-28T11:45:53.636Z,155
2016-07-28T11:46:53.392Z,155
2016-07-28T11:47:54.121Z,155
2016-07-28T11:49:08.375Z,155
2016-07-28T11:49:53.475Z,160
2016-07-28T11:50:53.509Z,165
2016-07-28T11:53:08.506Z,180
2016-07-28T11:53:53.614Z,185
2016-07-28T11:56:08.594Z,200
2016-07-28T11:56:53.704Z,200
2016-07-28T11:57:54.434Z,205
2016-07-28T11:59:53.801Z,230
2016-07-28T12:00:53.841Z,220
2016-07-28T12:01:53.860Z,235
2016-07-28T12:02:53.901Z,265
2016-07-28T12:03:53.924Z,265
2016-07-28T12:04:54.004Z,280
2016-07-28T12:05:54.693Z,270
2016-07-28T12:06:54.728Z,265
2016-07-28T12:07:54.052Z,265
2016-07-28T12:09:09.063Z,290
2016-07-28T12:10:09.053Z,295
2016-07-28T12:10:54.151Z,285
2016-07-28T12:11:54.188Z,275
2016-07-28T12:12:54.215Z,275
2016-07-28T12:14:09.170Z,285
2016-07-28T12:14:54.273Z,310
2016-07-28T12:15:54.309Z,305
2016-07-28T12:16:54.345Z,285
2016-07-28T12:17:54.370Z,285
2016-07-28T12:18:54.406Z,285
2016-07-28T12:19:54.454Z,285
2016-07-28T12:20:54.476Z,320
2016-07-28T12:22:09.424Z,285
2016-07-28T12:23:54.563Z,275
2016-07-28T12:25:09.521Z,280
2016-07-28T12:26:09.555Z,280
2016-07-28T12:26:55.380Z,280
2016-07-28T12:27:54.691Z,260
2016-07-28T12:28:58.026Z,265
2016-07-28T12:31:09.718Z,290
2016-07-28T12:31:54.833Z,255
2016-07-28T12:32:54.849Z,250
2016-07-28T12:33:54.884Z,250
2016-07-28T12:34:54.921Z,245
2016-07-28T12:35:54.968Z,240
2016-07-28T12:36:54.985Z,235
2016-07-28T12:37:55.013Z,250
2016-07-28T12:38:55.049Z,245
2016-07-28T12:39:55.075Z,250
2016-07-28T12:40:55.117Z,230
2016-07-28T12:41:55.832Z,230
2016-07-28T12:43:10.100Z,220
2016-07-28T12:45:10.167Z,205
2016-07-28T12:46:10.204Z,200
2016-07-28T12:47:10.229Z,200
2016-07-28T12:47:55.337Z,195
2016-07-28T12:48:55.372Z,195
2016-07-28T12:49:55.388Z,195
2016-07-28T12:51:55.463Z,195
2016-07-28T12:52:55.495Z,195
2016-07-28T12:53:55.520Z,195
2016-07-28T12:54:55.554Z,195
2016-07-28T12:55:55.589Z,195
2016-07-28T12:57:10.550Z,195
2016-07-28T12:58:10.576Z,195
2016-07-28T12:59:55.719Z,190
2016-07-28T13:01:10.671Z,190
2016-07-28T13:02:26.378Z,185
2016-07-28T13:03:10.736Z,185
2016-07-28T13:03:55.901Z,185
2016-07-28T13:04:55.884Z,180
2016-07-28T13:05:55.898Z,180
2016-07-28T13:06:55.937Z,180
2016-07-28T13:08:56.015Z,180
2016-07-28T13:09:56.137Z,180
2016-07-28T13:10:56.071Z,180
2016-07-28T13:11:56.095Z,180
2016-07-28T13:13:11.058Z,175
2016-07-28T13:13:56.158Z,180
2016-07-28T13:14:56.198Z,180
2016-07-28T13:17:11.182Z,195
2016-07-28T13:18:56.331Z,200
2016-07-28T13:19:56.376Z,205
2016-07-28T13:20:57.094Z,205
2016-07-28T13:21:56.415Z,205
2016-07-28T13:22:56.448Z,205
2016-07-28T13:23:56.488Z,200
2016-07-28T13:24:56.509Z,195
2016-07-28T13:26:56.577Z,190
2016-07-28T13:27:56.600Z,190
2016-07-28T13:28:56.636Z,190
2016-07-28T13:30:26.524Z,195
2016-07-28T13:30:56.702Z,200
2016-07-28T13:32:56.759Z,205
2016-07-28T13:33:56.809Z,205
2016-07-28T13:34:56.831Z,205
2016-07-28T13:35:56.863Z,205
2016-07-28T13:36:56.892Z,205
2016-07-28T13:37:57.614Z,205
2016-07-28T13:39:56.984Z,205
2016-07-28T13:40:57.021Z,205
2016-07-28T13:41:57.051Z,205
2016-07-28T13:42:57.100Z,205
2016-07-28T13:44:57.150Z,220
2016-07-28T13:46:12.102Z,205
2016-07-28T13:47:12.133Z,200
2016-07-28T13:47:57.233Z,195
2016-07-28T13:49:12.191Z,190
2016-07-28T13:49:57.304Z,190
2016-07-28T13:51:12.277Z,190
2016-07-28T13:52:12.288Z,185
2016-07-28T13:52:57.416Z,185
2016-07-28T13:53:57.430Z,195
2016-07-28T13:54:58.173Z,205
2016-07-28T13:55:57.494Z,200
2016-07-28T13:56:57.526Z,195
2016-07-28T13:57:57.575Z,190
2016-07-28T13:58:57.584Z,180
2016-07-28T13:59:57.625Z,170
2016-07-28T14:00:57.651Z,165
2016-07-28T14:01:57.687Z,165
2016-07-28T14:02:57.771Z,165
2016-07-28T14:05:12.707Z,160
2016-07-28T14:06:27.662Z,160
2016-07-28T14:06:57.845Z,160
2016-07-28T14:07:57.879Z,165
2016-07-28T14:08:57.905Z,165
2016-07-28T14:09:57.985Z,170
2016-07-28T14:11:58.009Z,175
2016-07-28T14:13:12.956Z,195
2016-07-28T14:13:58.062Z,220
2016-07-28T14:14:58.094Z,195
2016-07-28T14:15:58.189Z,185
2016-07-28T14:16:58.167Z,190
2016-07-28T14:18:58.221Z,195
2016-07-28T14:20:13.885Z,225
2016-07-28T14:21:13.217Z,200
2016-07-28T14:21:58.323Z,195
2016-07-28T14:22:58.358Z,190
2016-07-28T14:24:03.402Z,195
2016-07-28T14:24:58.429Z,200
2016-07-28T14:25:58.451Z,210
2016-07-28T14:26:58.482Z,225
2016-07-28T14:28:14.122Z,220
2016-07-28T14:28:58.541Z,210
2016-07-28T14:29:58.579Z,205
2016-07-28T14:31:13.536Z,195
2016-07-28T14:31:58.638Z,190
2016-07-28T14:33:13.594Z,185
2016-07-28T14:34:13.632Z,185
2016-07-28T14:34:58.728Z,180
2016-07-28T14:36:13.688Z,175
2016-07-28T14:37:13.717Z,180
2016-07-28T14:37:58.826Z,180
2016-07-28T14:39:13.787Z,180
2016-07-28T14:39:58.898Z,175
2016-07-28T14:40:58.924Z,185
2016-07-28T14:41:58.963Z,185
2016-07-28T14:42:58.989Z,185
2016-07-28T14:44:13.946Z,180
2016-07-28T14:44:59.046Z,185
2016-07-28T14:45:59.073Z,195
2016-07-28T14:46:59.120Z,200
2016-07-28T14:48:14.066Z,210
2016-07-28T14:48:59.178Z,210
2016-07-28T14:49:59.203Z,205
2016-07-28T14:50:59.244Z,200
2016-07-28T14:52:14.200Z,215
2016-07-28T14:52:59.309Z,200
2016-07-28T14:53:59.349Z,210
2016-07-28T14:54:59.365Z,220
2016-07-28T14:55:59.389Z,220
2016-07-28T14:57:14.354Z,225
2016-07-28T14:57:59.462Z,225